createdAt,value
2019-04-06T00:05:46.198Z,70.03
2019-04-06T00:11:50.581Z,67.40
2019-04-06T00:17:55.104Z,70.95
2019-04-06T00:23:59.466Z,68.12
2019-04-06T00:30:03.898Z,69.50
2019-04-06T00:36:08.842Z,73.15
2019-04-06T00:42:13.190Z,73.75
2019-04-06T00:48:17.628Z,82.55
2019-04-06T00:54:22.003Z,75.85
2019-04-06T01:00:26.572Z,72.55
2019-04-06T01:06:30.908Z,76.20
2019-04-06T01:12:35.335Z,75.62
2019-04-06T01:18:39.762Z,76.47
2019-04-06T01:24:44.065Z,78.95
2019-04-06T01:30:48.485Z,77.03
2019-04-06T01:36:52.845Z,80.40
2019-04-06T01:42:57.187Z,78.07
2019-04-06T01:49:01.718Z,77.65
2019-04-06T01:55:06.424Z,81.02
2019-04-06T02:01:28.466Z,79.62
2019-04-06T02:07:32.873Z,80.97
2019-04-06T02:13:40.093Z,77.25
2019-04-06T02:19:44.409Z,81.42
2019-04-06T02:25:48.749Z,85.47
2019-04-06T02:32:02.304Z,81.67
2019-04-06T02:38:13.943Z,85.20
2019-04-06T02:44:18.393Z,88.92
2019-04-06T02:50:22.795Z,86.10
2019-04-06T02:56:27.222Z,88.05
2019-04-06T03:02:31.541Z,86.65
2019-04-06T03:08:35.868Z,89.17
2019-04-06T03:14:40.205Z,88.03
2019-04-06T03:20:44.608Z,88.85
2019-04-06T03:27:00.749Z,91.82
2019-04-06T03:32:55.154Z,87.57
2019-04-06T03:39:02.637Z,86.28
2019-04-06T03:45:07.744Z,87.10
2019-04-06T03:51:12.125Z,88.87
2019-04-06T03:57:17.110Z,92.00
2019-04-06T04:03:21.655Z,91.20
2019-04-06T04:09:26.112Z,89.67
2019-04-06T04:15:30.615Z,86.47
2019-04-06T04:21:35.016Z,92.25
2019-04-06T04:27:41.680Z,89.75
2019-04-06T04:33:45.975Z,91.78
2019-04-06T04:39:50.207Z,90.30
2019-04-06T04:45:54.582Z,90.22
2019-04-06T04:51:58.767Z,88.45
2019-04-06T04:58:03.045Z,92.80
2019-04-06T05:04:07.213Z,88.70
2019-04-06T05:10:11.513Z,88.80
2019-04-06T05:16:16.214Z,90.30
2019-04-06T05:22:20.447Z,87.37
2019-04-06T05:28:24.639Z,82.90
2019-04-06T05:34:29.252Z,91.70
2019-04-06T05:40:33.510Z,85.30
2019-04-06T05:46:37.712Z,92.75
2019-04-06T05:52:41.906Z,88.72
2019-04-06T05:58:46.221Z,88.87
2019-04-06T06:04:50.663Z,85.70
2019-04-06T06:10:54.912Z,87.67
2019-04-06T06:16:59.222Z,88.10
2019-04-06T06:23:03.564Z,83.95
2019-04-06T06:29:07.874Z,84.60
2019-04-06T06:35:12.136Z,92.88
2019-04-06T06:41:16.539Z,90.03
2019-04-06T06:47:20.873Z,90.28
2019-04-06T06:53:25.196Z,85.50
2019-04-06T06:59:29.419Z,88.72
2019-04-06T07:05:33.816Z,89.52
2019-04-06T07:11:38.121Z,92.15
2019-04-06T07:17:42.479Z,84.60
2019-04-06T07:23:46.691Z,82.25
2019-04-06T07:29:50.868Z,89.00
2019-04-06T07:35:55.072Z,81.95
2019-04-06T07:41:59.554Z,83.47
2019-04-06T07:48:03.841Z,80.83
2019-04-06T07:54:08.318Z,80.70
2019-04-06T08:00:12.906Z,78.07
2019-04-06T08:06:17.263Z,76.70
2019-04-06T08:12:21.517Z,76.17
2019-04-06T08:18:25.996Z,70.92
2019-04-06T08:24:30.236Z,70.17
2019-04-06T08:30:45.020Z,70.17
2019-04-06T08:36:40.579Z,65.52
2019-04-06T08:42:45.319Z,62.15
2019-04-06T08:48:49.620Z,65.78
2019-04-06T08:54:53.927Z,59.23
2019-04-06T09:00:58.544Z,66.75
2019-04-06T09:07:02.852Z,61.13
2019-04-06T09:13:07.143Z,58.55
2019-04-06T09:19:11.379Z,58.73
2019-04-06T09:25:15.789Z,55.98
2019-04-06T09:31:20.316Z,51.28
2019-04-06T09:37:24.557Z,58.02
2019-04-06T09:43:28.959Z,54.83
2019-04-06T09:49:58.117Z,49.33
2019-04-06T09:56:27.580Z,56.83
2019-04-06T10:02:51.075Z,53.55
2019-04-06T10:09:20.392Z,50.50
2019-04-06T10:15:32.090Z,53.20
2019-04-06T10:21:54.185Z,47.70
2019-04-06T10:28:32.354Z,48.30
2019-04-06T10:34:58.617Z,47.23
2019-04-06T10:41:09.964Z,42.70
2019-04-06T10:47:26.728Z,44.03
2019-04-06T10:54:02.283Z,44.30
2019-04-06T11:00:44.499Z,48.38
2019-04-06T11:07:10.399Z,41.85
2019-04-06T11:13:33.696Z,45.43
2019-04-06T11:19:50.041Z,40.38
2019-04-06T11:26:09.520Z,42.62
2019-04-06T11:32:20.140Z,40.00
2019-04-06T11:38:43.608Z,39.63
2019-04-06T11:45:07.007Z,38.95
2019-04-06T11:51:29.068Z,41.55
2019-04-06T11:57:41.919Z,40.67
2019-04-06T12:04:11.257Z,40.50
2019-04-06T12:10:23.922Z,39.98
2019-04-06T12:16:51.343Z,37.93
2019-04-06T12:23:13.385Z,37.80
2019-04-06T12:29:37.228Z,36.48
2019-04-06T12:36:04.843Z,37.58
2019-04-06T12:42:21.646Z,35.70
2019-04-06T12:48:40.626Z,34.25
2019-04-06T12:55:04.634Z,32.83
2019-04-06T13:01:30.722Z,35.85
2019-04-06T13:07:50.631Z,36.73
2019-04-06T13:14:16.999Z,35.80
2019-04-06T13:20:40.874Z,35.70
2019-04-06T13:27:16.180Z,38.35
2019-04-06T13:33:37.812Z,32.85
2019-04-06T13:39:50.960Z,35.88
2019-04-06T13:46:13.150Z,32.00
2019-04-06T13:52:25.613Z,31.80
2019-04-06T13:58:47.858Z,33.20
2019-04-06T14:05:17.392Z,26.40
2019-04-06T14:11:46.454Z,27.40
2019-04-06T14:18:09.983Z,28.60
2019-04-06T14:24:37.038Z,27.67
2019-04-06T14:31:06.614Z,29.32
2019-04-06T14:37:32.902Z,26.10
2019-04-06T14:43:56.184Z,24.67
2019-04-06T14:50:18.220Z,26.33
2019-04-06T14:56:42.263Z,24.85
2019-04-06T15:03:02.937Z,23.25
2019-04-06T15:09:34.219Z,23.07
2019-04-06T15:16:01.027Z,20.68
2019-04-06T15:22:14.056Z,20.75
2019-04-06T15:28:37.404Z,19.98
2019-04-06T15:35:06.409Z,22.95
2019-04-06T15:41:54.748Z,21.00
2019-04-06T15:48:08.595Z,20.50
2019-04-06T15:54:21.728Z,19.35
2019-04-06T16:00:32.131Z,19.30
2019-04-06T16:06:46.604Z,18.35
2019-04-06T16:13:09.971Z,18.32
2019-04-06T16:19:40.430Z,18.65
2019-04-06T16:26:13.182Z,19.00
2019-04-06T16:32:32.405Z,17.20
2019-04-06T16:38:38.858Z,18.95
2019-04-06T16:45:05.025Z,20.02
2019-04-06T16:51:22.390Z,31.50
2019-04-06T16:57:44.509Z,22.82
2019-04-06T17:03:59.028Z,21.10
2019-04-06T17:10:25.440Z,23.57
2019-04-06T17:16:47.645Z,26.10
2019-04-06T17:23:10.989Z,29.60
2019-04-06T17:29:31.183Z,32.15
2019-04-06T17:35:44.781Z,33.48
2019-04-06T17:42:13.152Z,35.05
2019-04-06T17:48:45.509Z,35.60
2019-04-06T17:55:07.148Z,34.50
2019-04-06T18:01:29.105Z,34.45
2019-04-06T18:08:04.402Z,36.15
2019-04-06T18:14:09.164Z,38.42
2019-04-06T18:20:13.354Z,37.98
2019-04-06T18:26:19.144Z,40.03
2019-04-06T18:32:57.823Z,50.40
2019-04-06T18:39:06.426Z,52.45
2019-04-06T18:45:10.917Z,52.88
2019-04-06T18:51:15.729Z,52.95
2019-04-06T18:57:20.125Z,48.55
2019-04-06T19:03:24.347Z,57.17
2019-04-06T19:09:29.249Z,54.25
2019-04-06T19:15:33.465Z,53.92
2019-04-06T19:21:37.801Z,54.45
2019-04-06T19:27:43.167Z,60.25
2019-04-06T19:33:47.500Z,59.50
2019-04-06T19:39:51.840Z,58.50
2019-04-06T19:45:56.656Z,62.55
2019-04-06T19:52:01.502Z,62.78
2019-04-06T19:58:05.967Z,63.78
2019-04-06T20:04:10.310Z,61.18
2019-04-06T20:10:15.133Z,63.85
2019-04-06T20:16:20.090Z,63.68
2019-04-06T20:22:24.811Z,65.22
2019-04-06T20:28:29.078Z,62.75
2019-04-06T20:34:33.354Z,61.73
2019-04-06T20:40:37.924Z,59.20
2019-04-06T20:46:42.336Z,57.48
2019-04-06T20:52:46.603Z,64.03
2019-04-06T20:58:51.216Z,56.25
2019-04-06T21:04:56.144Z,58.58
2019-04-06T21:11:00.465Z,64.00
2019-04-06T21:17:04.762Z,55.65
2019-04-06T21:23:09.016Z,63.55
2019-04-06T21:29:13.696Z,61.65
2019-04-06T21:35:18.085Z,61.73
2019-04-06T21:41:23.013Z,63.73
2019-04-06T21:47:27.466Z,64.75
2019-04-06T21:53:31.999Z,61.45
2019-04-06T21:59:36.818Z,66.55
2019-04-06T22:05:41.975Z,66.33
2019-04-06T22:11:46.431Z,60.73
2019-04-06T22:17:50.808Z,65.42
2019-04-06T22:23:55.164Z,63.23
2019-04-06T22:29:59.526Z,64.10
2019-04-06T22:36:03.822Z,63.73
2019-04-06T22:42:08.092Z,61.98
2019-04-06T22:48:12.364Z,66.40
2019-04-06T22:54:16.572Z,66.22
2019-04-06T23:00:43.078Z,66.12
2019-04-06T23:07:00.686Z,62.13
2019-04-06T23:13:05.604Z,67.72
2019-04-06T23:19:10.942Z,70.72
2019-04-06T23:25:16.165Z,65.10
2019-04-06T23:31:21.051Z,68.57
2019-04-06T23:37:25.436Z,69.12
2019-04-06T23:43:29.689Z,75.28
2019-04-06T23:49:33.981Z,71.60
2019-04-06T23:55:38.463Z,77.22
